This is the latest recevied weather packets stored in our database for station/object KB2FWP. If no packets are shown the sender has not sent any weather packets the latest 1 day(s).
| Time | Temp. | Humidity | Pressure | Rain* | Wind** | Luminosity | Snow |
|---|---|---|---|---|---|---|---|
| 1777990508 | 13.89° C | 86% | 1013.5 hPa | 0 mm | 4.47 m/s, 177° | - | - |
| 1777989607 | 14.44° C | 86% | 1013.4 hPa | 0 mm | 4.02 m/s, 208° | - | - |
| 1777988710 | 14.44° C | 86% | 1013.4 hPa | 0 mm | 3.58 m/s, 199° | - | - |
| 1777987804 | 14.44° C | 87% | 1013.5 hPa | 0 mm | 2.68 m/s, 205° | - | - |
| 1777986902 | 13.89° C | 88% | 1013.5 hPa | 0 mm | 2.68 m/s, 228° | - | - |
| 1777986060 | 13.89° C | 88% | 1013.3 hPa | 0 mm | 3.58 m/s, 193° | - | - |
| 1777985164 | 13.89° C | 90% | 1013.2 hPa | 0 mm | 2.68 m/s, 196° | - | - |
| 1777984257 | 13.33° C | 90% | 1013.2 hPa | 0 mm | 2.24 m/s, 215° | - | - |
| 1777983355 | 13.33° C | 91% | 1013 hPa | 0 mm | 2.24 m/s, 195° | - | - |
| 1777982458 | 12.78° C | 91% | 1013.2 hPa | 0 mm | 1.79 m/s, 195° | - | - |
| 1777981552 | 12.78° C | 92% | 1013.3 hPa | 0 mm | 2.24 m/s, 213° | - | - |
| 1777980654 | 12.78° C | 92% | 1013.2 hPa | 0 mm | 0.89 m/s, 194° | - | - |
| 1777979750 | 12.78° C | 93% | 1013.2 hPa | 0 mm | 1.34 m/s, 202° | - | - |
| 1777978862 | 12.22° C | 93% | 1013.4 hPa | 0 mm | 1.34 m/s, 262° | - | - |
| 1777977945 | 11.67° C | 93% | 1013 hPa | 0 mm | 0.89 m/s, 210° | - | - |
| 1777977044 | 11.67° C | 93% | 1012.6 hPa | 0 mm | 1.79 m/s, 196° | - | - |
| 1777976145 | 11.67° C | 93% | 1012.3 hPa | 0 mm | 1.79 m/s, 186° | - | - |
| 1777975242 | 11.67° C | 93% | 1012.1 hPa | 0 mm | 1.34 m/s, 203° | - | - |
| 1777974342 | 11.67° C | 93% | 1012.1 hPa | 0 mm | 1.79 m/s, 179° | - | - |
| 1777973440 | 11.67° C | 93% | 1012.1 hPa | 0 mm | 1.34 m/s, 194° | - | - |
| 1777972539 | 11.67° C | 93% | 1012.1 hPa | 0 mm | 1.79 m/s, 185° | - | - |
| 1777971638 | 11.67° C | 92% | 1012 hPa | 0 mm | 1.34 m/s, 234° | - | - |
* Rain latest hour (hover to see other rain measurements)
** Current wind speed in m/s (hover to see current wind gust speed)